Time;durP1;ratioP1;P1;durP2;ratioP2;P2;SDS_P1;SDS_P2;PMS_P1;PMS_P2;Temp;Humidity;BMP_temperature;BMP_pressure;BME280_temperature;BME280_humidity;BME280_pressure;Samples;Min_cycle;Max_cycle;Signal;HPM_P1;HPM_P2
2023/06/24 00:00:51;;;;;;;;;;;19.10;81.00;;;;;;5051715;28;19925;-41
2023/06/24 00:03:18;;;;;;;;;;;19.10;80.80;;;;;;5047469;28;19932;-38
2023/06/24 00:05:49;;;;;;;;;;;19.10;81.00;;;;;;5043861;28;19986;-41
2023/06/24 00:08:15;;;;;;;;;;;19.00;81.30;;;;;;5032345;28;19924;-39
2023/06/24 00:10:44;;;;;;;;;;;19.00;81.10;;;;;;5015815;28;19935;-41
2023/06/24 00:13:10;;;;;;;;;;;19.00;81.20;;;;;;5050219;28;19925;-41
2023/06/24 00:15:42;;;;;;;;;;;18.90;81.20;;;;;;5033848;28;19925;-41
2023/06/24 00:18:09;;;;;;;;;;;18.90;81.50;;;;;;5033418;28;20327;-41
2023/06/24 00:20:36;;;;;;;;;;;18.90;81.70;;;;;;5051604;28;19929;-40
2023/06/24 00:23:04;;;;;;;;;;;18.80;81.70;;;;;;5051830;28;19935;-42
2023/06/24 00:25:30;;;;;;;;;;;18.80;82.20;;;;;;5051707;28;20042;-41
2023/06/24 00:27:57;;;;;;;;;;;18.80;82.80;;;;;;5050895;28;19932;-42
2023/06/24 00:30:24;;;;;;;;;;;18.70;82.90;;;;;;5044576;28;20426;-42
2023/06/24 00:32:51;;;;;;;;;;;18.60;83.60;;;;;;5050662;28;19929;-41
2023/06/24 00:35:18;;;;;;;;;;;18.50;83.60;;;;;;5034535;28;20335;-40
2023/06/24 00:37:46;;;;;;;;;;;18.50;83.50;;;;;;5050533;28;19929;-41
2023/06/24 00:40:15;;;;;;;;;;;18.40;83.20;;;;;;5029116;28;19976;-42
2023/06/24 00:42:42;;;;;;;;;;;18.40;83.30;;;;;;5022598;28;19928;-40
2023/06/24 00:45:09;;;;;;;;;;;18.30;83.80;;;;;;5051299;28;19931;-42
2023/06/24 00:47:36;;;;;;;;;;;18.30;84.20;;;;;;5050811;28;20441;-41
2023/06/24 00:50:03;;;;;;;;;;;18.20;84.20;;;;;;5033872;28;19944;-41
2023/06/24 00:52:29;;;;;;;;;;;18.20;84.50;;;;;;5050154;28;19995;-41
2023/06/24 00:54:56;;;;;;;;;;;18.20;84.50;;;;;;5049922;28;20285;-39
2023/06/24 00:57:25;;;;;;;;;;;18.10;84.50;;;;;;5047332;28;19925;-42
2023/06/24 00:59:53;;;;;;;;;;;18.10;84.40;;;;;;5048049;28;19929;-40
2023/06/24 01:02:19;;;;;;;;;;;18.10;84.40;;;;;;5033585;28;19936;-40
2023/06/24 01:04:46;;;;;;;;;;;18.00;84.50;;;;;;5049669;28;19952;-41
2023/06/24 01:07:13;;;;;;;;;;;18.00;85.80;;;;;;5050734;28;20373;-39
2023/06/24 01:09:39;;;;;;;;;;;18.00;84.70;;;;;;5049653;28;19929;-41
2023/06/24 01:12:07;;;;;;;;;;;17.90;85.00;;;;;;5049475;28;19931;-40
2023/06/24 01:14:36;;;;;;;;;;;17.90;84.90;;;;;;5014399;28;19929;-41
2023/06/24 01:17:04;;;;;;;;;;;17.90;85.30;;;;;;5030422;28;19925;-40
2023/06/24 01:19:46;;;;;;;;;;;17.80;84.80;;;;;;5050649;28;19925;-41
2023/06/24 01:22:19;;;;;;;;;;;17.80;85.20;;;;;;5027976;28;19967;-40
2023/06/24 01:24:49;;;;;;;;;;;17.80;85.40;;;;;;5049581;28;19925;-41
2023/06/24 01:27:32;;;;;;;;;;;17.80;85.50;;;;;;5048743;28;19933;-40
2023/06/24 01:30:21;;;;;;;;;;;17.70;85.50;;;;;;5027399;28;19925;-40
2023/06/24 01:32:50;;;;;;;;;;;17.70;85.40;;;;;;5044961;28;19925;-41
2023/06/24 01:35:20;;;;;;;;;;;17.70;85.70;;;;;;5050833;28;19925;-40
2023/06/24 01:37:48;;;;;;;;;;;17.70;85.70;;;;;;5036077;28;20020;-41
2023/06/24 01:40:16;;;;;;;;;;;17.60;85.70;;;;;;5051033;28;19925;-42
2023/06/24 01:42:43;;;;;;;;;;;17.60;85.90;;;;;;5042093;28;19924;-40
2023/06/24 01:45:11;;;;;;;;;;;17.60;86.00;;;;;;5054819;28;20007;-41
2023/06/24 01:47:38;;;;;;;;;;;17.50;86.30;;;;;;5037173;28;19925;-41
2023/06/24 01:50:06;;;;;;;;;;;17.50;86.30;;;;;;5053879;28;19925;-41
2023/06/24 01:52:33;;;;;;;;;;;17.50;86.70;;;;;;5048826;28;20288;-41
2023/06/24 01:55:00;;;;;;;;;;;17.40;86.40;;;;;;5031006;28;19931;-42
2023/06/24 01:57:26;;;;;;;;;;;17.40;86.30;;;;;;5035131;28;20278;-40
2023/06/24 01:59:53;;;;;;;;;;;17.40;86.70;;;;;;5037740;28;19928;-40
2023/06/24 02:02:20;;;;;;;;;;;17.40;87.30;;;;;;5052914;28;19925;-41
2023/06/24 02:04:47;;;;;;;;;;;17.30;87.30;;;;;;5054565;28;19972;-41
2023/06/24 02:07:15;;;;;;;;;;;17.30;87.30;;;;;;5036159;28;19929;-41
2023/06/24 02:09:43;;;;;;;;;;;17.30;87.00;;;;;;5053679;28;19929;-39
2023/06/24 02:12:10;;;;;;;;;;;17.30;87.20;;;;;;5055035;28;20288;-41
2023/06/24 02:14:37;;;;;;;;;;;17.30;87.20;;;;;;5053205;28;20043;-41
2023/06/24 02:17:04;;;;;;;;;;;17.20;87.40;;;;;;5036224;28;19925;-40
2023/06/24 02:19:31;;;;;;;;;;;17.20;87.40;;;;;;5052698;28;20395;-34
2023/06/24 02:21:59;;;;;;;;;;;17.20;87.50;;;;;;5051001;28;19968;-40
2023/06/24 02:24:27;;;;;;;;;;;17.10;88.30;;;;;;5054260;28;19925;-40
2023/06/24 02:26:53;;;;;;;;;;;17.10;88.60;;;;;;5054892;28;20434;-41
2023/06/24 02:29:20;;;;;;;;;;;17.10;88.30;;;;;;5040779;28;19925;-41
2023/06/24 02:31:47;;;;;;;;;;;17.10;88.20;;;;;;5036915;28;19932;-42
2023/06/24 02:34:14;;;;;;;;;;;17.00;88.30;;;;;;5044858;28;19932;-41
2023/06/24 02:36:41;;;;;;;;;;;17.00;88.60;;;;;;5036793;28;20387;-39
2023/06/24 02:39:07;;;;;;;;;;;17.00;88.50;;;;;;5054513;28;19925;-41
2023/06/24 02:41:36;;;;;;;;;;;17.00;88.80;;;;;;5036652;28;19994;-41
2023/06/24 02:44:02;;;;;;;;;;;17.00;88.60;;;;;;5036348;28;19928;-41
2023/06/24 02:46:29;;;;;;;;;;;17.00;88.70;;;;;;5052463;28;19932;-40
2023/06/24 02:48:56;;;;;;;;;;;16.90;88.80;;;;;;5042407;28;20305;-40
2023/06/24 02:51:23;;;;;;;;;;;16.90;88.70;;;;;;5043569;28;19932;-41
2023/06/24 02:53:50;;;;;;;;;;;16.90;89.20;;;;;;5051887;28;19948;-41
2023/06/24 02:56:20;;;;;;;;;;;16.90;89.10;;;;;;5035047;28;19929;-40
2023/06/24 02:58:49;;;;;;;;;;;16.90;89.30;;;;;;5035421;28;20004;-41
2023/06/24 03:01:15;;;;;;;;;;;16.80;89.20;;;;;;5034273;28;19947;-40
2023/06/24 03:03:42;;;;;;;;;;;16.80;89.10;;;;;;5052763;28;19971;-41
2023/06/24 03:06:12;;;;;;;;;;;16.80;89.70;;;;;;5035622;28;19924;-42
2023/06/24 03:08:38;;;;;;;;;;;16.80;89.90;;;;;;5052875;28;20011;-42
2023/06/24 03:11:05;;;;;;;;;;;16.80;90.10;;;;;;5051172;28;19931;-40
2023/06/24 03:13:32;;;;;;;;;;;16.80;90.30;;;;;;5049347;28;20264;-41
2023/06/24 03:16:00;;;;;;;;;;;16.80;90.30;;;;;;5048507;28;19925;-39
2023/06/24 03:18:27;;;;;;;;;;;16.70;90.20;;;;;;5053056;28;19925;-40
2023/06/24 03:20:53;;;;;;;;;;;16.70;90.20;;;;;;5053114;28;19984;-40
2023/06/24 03:23:20;;;;;;;;;;;16.60;90.50;;;;;;5035588;28;19971;-41
2023/06/24 03:25:46;;;;;;;;;;;16.70;90.60;;;;;;5035364;28;19925;-38
2023/06/24 03:28:13;;;;;;;;;;;16.70;90.60;;;;;;5052191;28;19928;-40
2023/06/24 03:30:40;;;;;;;;;;;16.70;90.50;;;;;;5035562;28;19928;-40
2023/06/24 03:33:08;;;;;;;;;;;16.60;90.70;;;;;;5052528;28;20266;-40
2023/06/24 03:35:35;;;;;;;;;;;16.70;90.80;;;;;;5052073;28;20282;-41
2023/06/24 03:38:01;;;;;;;;;;;16.60;91.00;;;;;;5052448;28;19925;-41
2023/06/24 03:40:28;;;;;;;;;;;16.60;90.90;;;;;;5051946;28;19925;-40
2023/06/24 03:42:55;;;;;;;;;;;16.60;90.90;;;;;;5035208;28;19932;-39
2023/06/24 03:45:21;;;;;;;;;;;16.60;90.90;;;;;;5033161;28;21380;-39
2023/06/24 03:47:48;;;;;;;;;;;16.60;91.00;;;;;;5033959;28;19978;-41
2023/06/24 03:50:16;;;;;;;;;;;16.60;91.10;;;;;;5052380;28;20359;-41
2023/06/24 03:52:44;;;;;;;;;;;16.60;91.30;;;;;;5034419;28;20450;-40
2023/06/24 03:55:10;;;;;;;;;;;16.60;91.20;;;;;;5033530;28;19925;-40
2023/06/24 03:57:37;;;;;;;;;;;16.60;91.40;;;;;;5034381;28;19928;-41
2023/06/24 04:00:12;;;;;;;;;;;16.60;91.20;;;;;;5028093;28;19925;-39
2023/06/24 04:02:39;;;;;;;;;;;16.60;91.30;;;;;;5045865;28;19931;-39
2023/06/24 04:05:06;;;;;;;;;;;16.60;91.30;;;;;;5049943;28;19933;-41
2023/06/24 04:07:35;;;;;;;;;;;16.60;91.40;;;;;;5049262;28;19931;-37
2023/06/24 04:10:02;;;;;;;;;;;16.60;91.40;;;;;;5046694;28;19931;-41
2023/06/24 04:12:29;;;;;;;;;;;16.60;92.00;;;;;;5034065;28;19931;-36
2023/06/24 04:14:56;;;;;;;;;;;16.60;93.10;;;;;;5050378;28;19925;-40
2023/06/24 04:17:23;;;;;;;;;;;16.60;95.40;;;;;;5048304;28;19925;-41
2023/06/24 04:19:49;;;;;;;;;;;16.60;95.10;;;;;;5015811;28;19925;-40
2023/06/24 04:22:16;;;;;;;;;;;16.70;94.30;;;;;;5035241;28;19928;-38
2023/06/24 04:24:44;;;;;;;;;;;16.70;94.40;;;;;;5048693;28;19932;-40
2023/06/24 04:27:11;;;;;;;;;;;16.70;94.10;;;;;;5033881;28;19925;-41
2023/06/24 04:29:38;;;;;;;;;;;16.70;94.90;;;;;;5032481;28;19933;-40
2023/06/24 04:32:05;;;;;;;;;;;16.70;95.80;;;;;;5037756;28;20008;-41
2023/06/24 04:34:32;;;;;;;;;;;16.70;96.20;;;;;;5051781;28;19932;-40
2023/06/24 04:36:59;;;;;;;;;;;16.80;97.60;;;;;;5051129;28;20012;-40
2023/06/24 04:39:25;;;;;;;;;;;16.80;98.60;;;;;;5050947;28;19929;-41
2023/06/24 04:41:53;;;;;;;;;;;16.80;98.30;;;;;;5051131;28;19979;-38
2023/06/24 04:44:20;;;;;;;;;;;16.80;99.40;;;;;;5050345;28;19933;-39
2023/06/24 04:46:47;;;;;;;;;;;16.80;98.20;;;;;;5050397;28;19936;-41
2023/06/24 04:49:17;;;;;;;;;;;16.90;99.00;;;;;;5033223;28;20296;-40
2023/06/24 04:51:44;;;;;;;;;;;16.90;98.80;;;;;;5033526;28;20281;-40
2023/06/24 04:54:12;;;;;;;;;;;17.00;99.90;;;;;;5049401;28;19929;-40
2023/06/24 04:56:38;;;;;;;;;;;17.00;99.90;;;;;;5046399;28;20051;-40
2023/06/24 04:59:06;;;;;;;;;;;17.00;99.90;;;;;;5051262;28;19928;-39
2023/06/24 05:01:33;;;;;;;;;;;17.10;99.90;;;;;;5041112;28;19929;-40
2023/06/24 05:04:00;;;;;;;;;;;17.10;99.90;;;;;;5049245;28;20388;-40
2023/06/24 05:06:27;;;;;;;;;;;17.20;99.90;;;;;;5032350;28;19982;-39
2023/06/24 05:08:53;;;;;;;;;;;17.20;99.90;;;;;;5050178;28;19932;-40
2023/06/24 05:11:20;;;;;;;;;;;17.20;99.90;;;;;;5050019;28;20380;-35
2023/06/24 05:13:47;;;;;;;;;;;17.30;99.90;;;;;;5044868;28;19933;-41
2023/06/24 05:16:16;;;;;;;;;;;17.40;99.90;;;;;;5051538;28;19928;-40
2023/06/24 05:18:44;;;;;;;;;;;17.50;99.90;;;;;;5036574;28;19925;-39
2023/06/24 05:21:11;;;;;;;;;;;17.50;99.90;;;;;;5032941;28;20030;-40
2023/06/24 05:23:40;;;;;;;;;;;17.60;99.90;;;;;;5035658;28;19925;-41
2023/06/24 05:26:07;;;;;;;;;;;17.70;99.90;;;;;;5050854;28;20282;-41
2023/06/24 05:28:34;;;;;;;;;;;17.80;99.90;;;;;;5050096;28;19924;-41
2023/06/24 05:31:00;;;;;;;;;;;17.90;99.90;;;;;;5048825;28;19940;-40
2023/06/24 05:33:28;;;;;;;;;;;18.00;99.90;;;;;;5042074;28;20430;-41
2023/06/24 05:35:55;;;;;;;;;;;18.10;99.90;;;;;;5040078;28;20070;-41
2023/06/24 05:38:22;;;;;;;;;;;18.30;99.90;;;;;;5049939;28;19925;-41
2023/06/24 05:40:48;;;;;;;;;;;18.40;99.90;;;;;;5033566;28;19925;-41
2023/06/24 05:43:15;;;;;;;;;;;18.50;99.90;;;;;;5035507;28;19925;-41
2023/06/24 05:45:42;;;;;;;;;;;18.60;99.90;;;;;;5037593;28;20396;-39
2023/06/24 05:48:09;;;;;;;;;;;18.70;99.90;;;;;;5036095;28;19929;-41
2023/06/24 05:50:37;;;;;;;;;;;18.80;99.90;;;;;;5051984;28;20316;-41
2023/06/24 05:53:03;;;;;;;;;;;18.90;99.90;;;;;;5034971;28;19940;-41
2023/06/24 05:55:30;;;;;;;;;;;19.10;99.90;;;;;;5049342;28;19929;-41
2023/06/24 05:57:57;;;;;;;;;;;19.10;99.90;;;;;;5035476;28;19932;-41
2023/06/24 06:00:23;;;;;;;;;;;19.20;99.90;;;;;;5051822;28;19980;-41
2023/06/24 06:02:50;;;;;;;;;;;19.40;99.90;;;;;;5034126;28;19932;-41
2023/06/24 06:05:17;;;;;;;;;;;19.50;99.90;;;;;;5052071;28;19978;-42
2023/06/24 06:07:45;;;;;;;;;;;19.60;99.90;;;;;;5052042;28;20395;-40
2023/06/24 06:10:11;;;;;;;;;;;19.80;99.90;;;;;;5048513;28;20007;-41
2023/06/24 06:12:38;;;;;;;;;;;19.90;99.90;;;;;;5035819;28;19971;-41
2023/06/24 06:15:05;;;;;;;;;;;20.00;99.90;;;;;;5051779;28;20403;-39
2023/06/24 06:17:32;;;;;;;;;;;20.10;99.90;;;;;;5051521;28;19932;-39
2023/06/24 06:19:59;;;;;;;;;;;20.20;99.90;;;;;;5052414;28;19999;-41
2023/06/24 06:22:26;;;;;;;;;;;20.30;99.90;;;;;;5032906;28;19928;-41
2023/06/24 06:24:54;;;;;;;;;;;20.40;99.90;;;;;;5052030;28;19932;-41
2023/06/24 06:27:21;;;;;;;;;;;20.60;99.90;;;;;;5053078;28;19939;-42
2023/06/24 06:29:47;;;;;;;;;;;20.80;99.90;;;;;;5036184;28;19932;-41
2023/06/24 06:32:14;;;;;;;;;;;20.90;99.90;;;;;;5052994;28;19928;-41
2023/06/24 06:34:42;;;;;;;;;;;21.10;99.90;;;;;;5032946;28;19952;-34
2023/06/24 06:37:08;;;;;;;;;;;21.20;99.90;;;;;;5051864;28;20407;-41
2023/06/24 06:39:35;;;;;;;;;;;21.40;99.90;;;;;;5042914;28;19931;-41
2023/06/24 06:42:03;;;;;;;;;;;21.50;99.90;;;;;;5050620;28;19987;-40
2023/06/24 06:44:30;;;;;;;;;;;21.70;99.90;;;;;;5030157;28;20014;-38
2023/06/24 06:46:57;;;;;;;;;;;21.80;99.90;;;;;;5038744;28;19928;-41
2023/06/24 06:49:23;;;;;;;;;;;21.90;99.90;;;;;;5031895;28;19991;-41
2023/06/24 06:51:50;;;;;;;;;;;22.00;99.60;;;;;;5041319;28;19936;-38
2023/06/24 06:54:17;;;;;;;;;;;22.20;99.30;;;;;;5048670;28;20041;-38
2023/06/24 06:56:43;;;;;;;;;;;22.30;99.20;;;;;;5051168;28;19928;-40
2023/06/24 06:59:11;;;;;;;;;;;22.40;98.90;;;;;;5051622;28;19932;-40
2023/06/24 07:01:38;;;;;;;;;;;22.50;98.80;;;;;;5047648;28;20513;-41
2023/06/24 07:04:05;;;;;;;;;;;22.70;98.80;;;;;;5046142;28;19925;-39
2023/06/24 07:06:32;;;;;;;;;;;22.80;98.70;;;;;;5051946;28;19990;-40
2023/06/24 07:08:59;;;;;;;;;;;23.10;98.60;;;;;;5051541;28;20377;-41
2023/06/24 07:11:25;;;;;;;;;;;23.30;98.30;;;;;;5033121;28;19935;-41
2023/06/24 07:13:52;;;;;;;;;;;23.50;98.20;;;;;;5049641;28;19925;-42
2023/06/24 07:16:20;;;;;;;;;;;23.60;97.80;;;;;;5031987;28;20035;-41
2023/06/24 07:18:47;;;;;;;;;;;23.80;97.50;;;;;;5027143;28;19931;-41
2023/06/24 07:21:14;;;;;;;;;;;24.00;97.20;;;;;;5030516;28;19931;-40
2023/06/24 07:23:41;;;;;;;;;;;24.20;96.50;;;;;;5029889;28;19925;-41
2023/06/24 07:26:08;;;;;;;;;;;24.40;96.60;;;;;;5029360;28;20036;-41
2023/06/24 07:28:35;;;;;;;;;;;24.60;95.50;;;;;;5032843;28;20549;-42
2023/06/24 07:32:10;;;;;;;;;;;24.90;95.00;;;;;;4917632;22;19969;-37
2023/06/24 07:35:59;;;;;;;;;;;25.00;94.60;;;;;;5008806;27;19970;-34
2023/06/24 07:38:25;;;;;;;;;;;25.00;94.70;;;;;;4968209;28;19925;-36
2023/06/24 07:40:52;;;;;;;;;;;25.10;94.60;;;;;;5024097;28;19926;-35
2023/06/24 07:43:19;;;;;;;;;;;25.20;94.30;;;;;;5055870;28;19932;-35
2023/06/24 07:45:45;;;;;;;;;;;25.30;92.80;;;;;;5026957;28;19936;-36
2023/06/24 07:48:12;;;;;;;;;;;25.40;93.30;;;;;;5017957;28;20434;-36
2023/06/24 07:50:39;;;;;;;;;;;25.40;93.20;;;;;;5021023;28;19939;-37
2023/06/24 07:53:07;;;;;;;;;;;25.40;92.80;;;;;;5026450;28;19980;-36
2023/06/24 07:55:34;;;;;;;;;;;25.50;92.40;;;;;;5025833;28;19948;-36
2023/06/24 07:58:02;;;;;;;;;;;25.60;92.40;;;;;;5025315;28;19929;-36
2023/06/24 08:00:29;;;;;;;;;;;25.70;92.80;;;;;;5027783;28;19937;-35
2023/06/24 08:02:56;;;;;;;;;;;25.90;92.10;;;;;;5027064;28;20419;-35
2023/06/24 08:05:23;;;;;;;;;;;26.00;91.70;;;;;;5024322;28;19932;-36
2023/06/24 08:07:49;;;;;;;;;;;26.10;91.70;;;;;;5025487;28;20339;-36
2023/06/24 08:10:17;;;;;;;;;;;26.20;91.50;;;;;;5024084;28;19979;-35
2023/06/24 08:12:44;;;;;;;;;;;26.30;91.10;;;;;;5025458;28;19940;-35
2023/06/24 08:15:11;;;;;;;;;;;26.50;91.00;;;;;;5014579;28;19926;-37
2023/06/24 08:17:38;;;;;;;;;;;26.70;91.20;;;;;;5023930;28;20326;-37
2023/06/24 08:20:05;;;;;;;;;;;26.90;90.80;;;;;;5051411;28;19926;-36
2023/06/24 08:22:31;;;;;;;;;;;27.00;90.90;;;;;;5013996;28;19932;-36
2023/06/24 08:24:59;;;;;;;;;;;27.10;89.30;;;;;;5023887;28;19937;-36
2023/06/24 08:27:27;;;;;;;;;;;27.30;88.60;;;;;;5026776;28;19929;-37
2023/06/24 08:29:53;;;;;;;;;;;27.40;87.60;;;;;;5022359;28;19997;-35
2023/06/24 08:32:20;;;;;;;;;;;27.40;87.50;;;;;;5023746;28;20395;-35
2023/06/24 08:34:47;;;;;;;;;;;27.60;86.30;;;;;;5033193;28;19964;-35
2023/06/24 08:37:13;;;;;;;;;;;27.70;85.40;;;;;;5044020;28;19940;-35
2023/06/24 08:39:40;;;;;;;;;;;27.80;85.70;;;;;;5042419;28;19925;-35
2023/06/24 08:42:07;;;;;;;;;;;27.90;86.20;;;;;;5044003;28;19925;-36
2023/06/24 08:44:35;;;;;;;;;;;28.10;83.70;;;;;;5044532;28;20067;-35
2023/06/24 08:47:01;;;;;;;;;;;28.20;82.50;;;;;;5034148;28;19948;-36
2023/06/24 08:49:29;;;;;;;;;;;28.40;75.80;;;;;;5031333;28;19925;-36
2023/06/24 08:51:57;;;;;;;;;;;28.50;80.90;;;;;;5065774;28;19971;-37
2023/06/24 08:54:24;;;;;;;;;;;28.70;79.20;;;;;;5061637;28;19979;-37
2023/06/24 08:56:51;;;;;;;;;;;28.80;81.60;;;;;;5030297;28;20036;-35
2023/06/24 08:59:19;;;;;;;;;;;28.90;78.80;;;;;;5030009;28;19944;-35
2023/06/24 09:01:47;;;;;;;;;;;29.00;76.30;;;;;;5030550;28;20466;-38
2023/06/24 09:04:14;;;;;;;;;;;28.90;77.50;;;;;;5032033;28;20292;-37
2023/06/24 09:06:40;;;;;;;;;;;28.80;79.00;;;;;;5064837;28;19980;-35
2023/06/24 09:09:17;;;;;;;;;;;28.70;78.00;;;;;;5028431;28;19929;-38
2023/06/24 09:11:44;;;;;;;;;;;28.70;78.50;;;;;;5034291;28;20415;-38
2023/06/24 09:14:11;;;;;;;;;;;28.70;74.40;;;;;;5032133;28;19925;-37
2023/06/24 09:16:37;;;;;;;;;;;28.70;76.30;;;;;;5033977;28;19932;-37
2023/06/24 09:19:05;;;;;;;;;;;28.90;77.40;;;;;;5033312;28;19929;-37
2023/06/24 09:21:32;;;;;;;;;;;29.00;77.20;;;;;;5033254;28;19929;-37
2023/06/24 09:23:59;;;;;;;;;;;29.10;76.20;;;;;;5034535;28;20231;-37
2023/06/24 09:26:26;;;;;;;;;;;29.30;76.80;;;;;;5029665;28;19971;-38
2023/06/24 09:28:53;;;;;;;;;;;29.40;74.50;;;;;;5033876;28;19925;-37
2023/06/24 09:31:20;;;;;;;;;;;29.60;75.10;;;;;;5033098;28;20426;-37
2023/06/24 09:33:47;;;;;;;;;;;29.70;75.10;;;;;;5032794;28;19976;-37
2023/06/24 09:36:15;;;;;;;;;;;29.80;75.80;;;;;;5032399;28;19929;-36
2023/06/24 09:38:42;;;;;;;;;;;30.00;75.40;;;;;;5064868;28;19932;-36
2023/06/24 09:41:09;;;;;;;;;;;30.10;73.80;;;;;;5032151;28;19925;-38
2023/06/24 09:43:36;;;;;;;;;;;30.20;73.70;;;;;;5032251;28;20240;-37
2023/06/24 09:46:03;;;;;;;;;;;30.30;73.00;;;;;;5029191;28;20275;-37
2023/06/24 09:48:30;;;;;;;;;;;30.40;72.80;;;;;;5059468;28;19937;-37
2023/06/24 09:50:57;;;;;;;;;;;30.50;71.80;;;;;;5024903;28;20344;-37
2023/06/24 09:53:25;;;;;;;;;;;30.50;71.60;;;;;;5019198;28;19929;-38
2023/06/24 09:55:52;;;;;;;;;;;30.50;72.40;;;;;;5030211;28;19925;-37
2023/06/24 09:58:19;;;;;;;;;;;30.50;69.80;;;;;;5041546;28;19925;-37
2023/06/24 10:00:46;;;;;;;;;;;30.60;70.60;;;;;;5028676;28;19929;-37
2023/06/24 10:03:12;;;;;;;;;;;30.70;72.10;;;;;;5028995;28;19941;-34
2023/06/24 10:05:40;;;;;;;;;;;30.80;71.60;;;;;;5031820;28;20380;-36
2023/06/24 10:08:07;;;;;;;;;;;30.90;70.80;;;;;;5012478;28;19926;-36
2023/06/24 10:10:35;;;;;;;;;;;31.00;71.20;;;;;;5027958;28;19932;-36
2023/06/24 10:13:01;;;;;;;;;;;31.10;69.80;;;;;;5028341;28;19936;-36
2023/06/24 10:15:28;;;;;;;;;;;31.10;68.80;;;;;;5061065;28;19969;-36
2023/06/24 10:17:55;;;;;;;;;;;31.00;70.80;;;;;;5058082;28;19925;-36
2023/06/24 10:20:26;;;;;;;;;;;31.10;70.40;;;;;;5030720;28;19925;-38
2023/06/24 10:22:53;;;;;;;;;;;31.20;69.60;;;;;;5064155;28;19929;-36
2023/06/24 10:25:20;;;;;;;;;;;31.30;68.30;;;;;;5028940;28;20143;-37
2023/06/24 10:27:48;;;;;;;;;;;31.40;66.80;;;;;;5062222;28;19929;-38
2023/06/24 10:30:17;;;;;;;;;;;31.50;69.40;;;;;;5063766;28;19929;-36
2023/06/24 10:32:44;;;;;;;;;;;31.60;69.10;;;;;;5029204;28;20311;-38
2023/06/24 10:35:21;;;;;;;;;;;31.70;68.80;;;;;;5029538;28;19979;-38
2023/06/24 10:37:53;;;;;;;;;;;31.70;69.20;;;;;;5031225;28;19925;-36
2023/06/24 10:40:27;;;;;;;;;;;31.80;69.20;;;;;;5063759;28;19941;-36
2023/06/24 10:42:55;;;;;;;;;;;31.90;69.10;;;;;;5064384;28;19940;-37
2023/06/24 10:45:21;;;;;;;;;;;32.10;68.10;;;;;;5027778;28;20024;-37
2023/06/24 10:47:48;;;;;;;;;;;32.20;65.80;;;;;;5061292;28;19948;-35
2023/06/24 10:50:15;;;;;;;;;;;32.20;66.70;;;;;;5029158;28;19975;-35
2023/06/24 10:52:42;;;;;;;;;;;32.30;68.30;;;;;;5028487;28;20369;-36
2023/06/24 10:55:09;;;;;;;;;;;32.50;69.50;;;;;;5020459;28;19937;-38
2023/06/24 10:57:36;;;;;;;;;;;32.70;67.80;;;;;;5016128;28;19925;-38
2023/06/24 11:00:05;;;;;;;;;;;32.80;65.10;;;;;;5044075;28;20013;-37
2023/06/24 11:02:31;;;;;;;;;;;32.70;66.90;;;;;;5025205;28;20546;-37
2023/06/24 11:04:58;;;;;;;;;;;32.70;65.60;;;;;;5057780;28;19965;-37
2023/06/24 11:07:25;;;;;;;;;;;32.80;66.30;;;;;;5030109;28;19925;-38
2023/06/24 11:09:52;;;;;;;;;;;32.90;66.50;;;;;;5031355;28;20217;-37
2023/06/24 11:12:19;;;;;;;;;;;33.00;64.20;;;;;;5026191;28;19929;-37
2023/06/24 11:14:46;;;;;;;;;;;33.00;65.50;;;;;;5058568;28;19933;-37
2023/06/24 11:17:14;;;;;;;;;;;33.00;64.10;;;;;;5027962;28;19925;-38
2023/06/24 11:19:40;;;;;;;;;;;32.90;64.10;;;;;;5030648;28;19929;-37
2023/06/24 11:22:07;;;;;;;;;;;32.90;64.20;;;;;;5014795;28;19933;-36
2023/06/24 11:24:34;;;;;;;;;;;32.90;63.80;;;;;;5009777;28;20340;-37
2023/06/24 11:27:01;;;;;;;;;;;32.80;63.80;;;;;;5005145;28;19929;-36
2023/06/24 11:29:29;;;;;;;;;;;32.90;64.50;;;;;;5002091;28;20266;-37
2023/06/24 11:31:56;;;;;;;;;;;33.00;63.10;;;;;;5005156;28;19935;-36
2023/06/24 11:34:24;;;;;;;;;;;33.10;63.60;;;;;;5006271;28;19929;-37
2023/06/24 11:36:51;;;;;;;;;;;33.20;64.20;;;;;;5004520;28;19934;-37
2023/06/24 11:39:21;;;;;;;;;;;33.30;63.90;;;;;;5005151;28;19929;-35
2023/06/24 11:41:48;;;;;;;;;;;33.40;62.00;;;;;;5003471;28;19930;-36
2023/06/24 11:44:14;;;;;;;;;;;33.50;62.80;;;;;;5004365;28;20277;-38
2023/06/24 11:46:41;;;;;;;;;;;33.70;63.00;;;;;;5005726;28;19930;-36
2023/06/24 11:49:08;;;;;;;;;;;33.80;59.60;;;;;;5006520;28;20380;-38
2023/06/24 11:51:36;;;;;;;;;;;33.70;61.30;;;;;;5006623;28;20301;-38
2023/06/24 11:54:03;;;;;;;;;;;33.80;63.00;;;;;;5006742;28;19930;-37
2023/06/24 11:56:36;;;;;;;;;;;33.90;64.10;;;;;;5007407;28;20388;-37
2023/06/24 11:59:04;;;;;;;;;;;34.10;62.80;;;;;;5005549;28;19979;-38
2023/06/24 12:01:31;;;;;;;;;;;34.30;61.30;;;;;;5040494;28;19930;-37
2023/06/24 12:03:58;;;;;;;;;;;34.30;60.70;;;;;;5005038;28;19934;-38
2023/06/24 12:06:25;;;;;;;;;;;34.50;62.40;;;;;;5007469;28;19929;-34
2023/06/24 12:08:53;;;;;;;;;;;34.50;61.20;;;;;;5009695;28;19965;-37
2023/06/24 12:11:19;;;;;;;;;;;34.50;61.30;;;;;;5008487;28;20005;-38
2023/06/24 12:13:46;;;;;;;;;;;34.30;61.40;;;;;;5005736;28;19929;-36
2023/06/24 12:16:13;;;;;;;;;;;33.90;59.90;;;;;;5008104;28;20218;-39
2023/06/24 12:18:40;;;;;;;;;;;33.60;62.80;;;;;;5039362;28;19933;-38
2023/06/24 12:21:06;;;;;;;;;;;33.40;63.10;;;;;;5039998;28;20258;-37
2023/06/24 12:23:33;;;;;;;;;;;33.20;63.10;;;;;;5009270;28;19984;-37
2023/06/24 12:26:01;;;;;;;;;;;33.10;63.10;;;;;;5003647;28;19980;-37
2023/06/24 12:28:28;;;;;;;;;;;33.00;63.40;;;;;;5010415;28;20293;-38
2023/06/24 12:30:55;;;;;;;;;;;32.90;64.20;;;;;;5012129;28;19926;-38
2023/06/24 12:33:22;;;;;;;;;;;32.90;64.60;;;;;;5041570;28;19937;-38
2023/06/24 12:35:49;;;;;;;;;;;33.00;63.40;;;;;;5027510;28;19979;-37
2023/06/24 12:38:16;;;;;;;;;;;33.10;64.10;;;;;;5013410;28;19925;-37
2023/06/24 12:40:43;;;;;;;;;;;33.30;63.30;;;;;;5032294;28;20466;-37
2023/06/24 12:43:11;;;;;;;;;;;33.50;63.10;;;;;;5032391;28;20434;-37
2023/06/24 12:45:38;;;;;;;;;;;33.70;62.20;;;;;;5030654;28;19991;-39
2023/06/24 12:48:05;;;;;;;;;;;33.90;61.20;;;;;;5015317;28;20300;-37
2023/06/24 12:50:31;;;;;;;;;;;34.00;60.70;;;;;;5033347;28;20447;-37
2023/06/24 12:52:58;;;;;;;;;;;34.10;62.10;;;;;;5034245;28;19925;-39
2023/06/24 12:55:25;;;;;;;;;;;34.30;61.00;;;;;;5032709;28;19991;-38
2023/06/24 12:57:51;;;;;;;;;;;34.50;61.40;;;;;;5048721;28;19925;-37
2023/06/24 13:00:21;;;;;;;;;;;34.50;60.60;;;;;;5019033;28;19931;-37
2023/06/24 13:02:48;;;;;;;;;;;34.40;60.20;;;;;;5034031;28;20360;-39
2023/06/24 13:05:14;;;;;;;;;;;34.20;61.20;;;;;;5023460;28;20289;-38
2023/06/24 13:07:41;;;;;;;;;;;34.10;60.90;;;;;;5032887;28;19929;-37
2023/06/24 13:10:08;;;;;;;;;;;34.00;60.90;;;;;;5031924;28;19952;-38
2023/06/24 13:12:35;;;;;;;;;;;33.80;62.00;;;;;;5016229;28;19925;-38
2023/06/24 13:15:04;;;;;;;;;;;33.70;62.00;;;;;;5045228;28;20407;-37
2023/06/24 13:17:32;;;;;;;;;;;33.70;62.00;;;;;;5006811;28;19976;-38
2023/06/24 13:19:59;;;;;;;;;;;33.60;61.10;;;;;;5013545;28;19925;-38
2023/06/24 13:22:25;;;;;;;;;;;33.40;62.00;;;;;;5030613;28;19932;-37
2023/06/24 13:24:52;;;;;;;;;;;33.40;62.10;;;;;;5030493;28;20438;-38
2023/06/24 13:27:19;;;;;;;;;;;33.30;61.90;;;;;;5031115;28;19987;-37
2023/06/24 13:29:45;;;;;;;;;;;33.20;63.10;;;;;;5031779;28;19964;-39
2023/06/24 13:32:12;;;;;;;;;;;33.20;62.70;;;;;;5034031;28;19928;-39
2023/06/24 13:34:40;;;;;;;;;;;33.10;61.80;;;;;;5047960;28;19932;-39
2023/06/24 13:37:07;;;;;;;;;;;33.00;60.90;;;;;;5031946;28;19933;-37
2023/06/24 13:39:33;;;;;;;;;;;32.90;62.60;;;;;;5015469;28;19940;-38
2023/06/24 13:42:00;;;;;;;;;;;32.80;61.40;;;;;;5031946;28;19975;-39
2023/06/24 13:44:27;;;;;;;;;;;32.70;62.00;;;;;;5014885;28;19934;-39
2023/06/24 13:46:54;;;;;;;;;;;32.70;63.30;;;;;;5014925;28;19932;-38
2023/06/24 13:49:20;;;;;;;;;;;32.70;62.80;;;;;;5013788;28;20012;-38
2023/06/24 13:51:48;;;;;;;;;;;32.80;63.50;;;;;;5031829;28;19925;-38
2023/06/24 13:54:15;;;;;;;;;;;32.80;63.60;;;;;;5012639;28;19925;-38
2023/06/24 13:56:42;;;;;;;;;;;32.70;62.60;;;;;;5030606;28;19929;-38
2023/06/24 13:59:10;;;;;;;;;;;32.70;63.50;;;;;;5013190;28;19956;-37
2023/06/24 14:01:37;;;;;;;;;;;32.70;62.80;;;;;;5012158;28;19955;-39
2023/06/24 14:04:04;;;;;;;;;;;32.60;63.20;;;;;;5009508;28;19955;-37
2023/06/24 14:06:31;;;;;;;;;;;32.60;63.40;;;;;;5019443;28;19929;-37
2023/06/24 14:08:59;;;;;;;;;;;32.50;63.10;;;;;;5026684;28;20401;-38
2023/06/24 14:11:25;;;;;;;;;;;32.40;62.20;;;;;;5010866;28;20019;-38
2023/06/24 14:13:52;;;;;;;;;;;32.30;62.50;;;;;;5031889;28;19983;-38
2023/06/24 14:16:19;;;;;;;;;;;32.30;62.80;;;;;;5046167;28;19932;-36
2023/06/24 14:18:45;;;;;;;;;;;32.30;62.20;;;;;;5028970;28;19929;-38